Terminal Aerodrome Forecast
Issued by NWS

Home | Current Version | Previous Version | Text Only | Print | Product List | Glossary Off
Versions: 1 2 3 4 5 6 7 8 9 10 11 12 13 14 15 16 17 18 19 20 21

000
FTUS43 KFGF 141847 AAA
TAFBJI
TAF AMD
KBJI 141847Z 1419/1518 18009KT 2SM BR OVC003
     FM150000 21006KT 3/4SM BR OVC003
     FM150400 25004KT 1/2SM FG OVC003
     FM150500 27004KT 1 1/2SM BR OVC003
     FM150600 28005KT 4SM BR OVC008
     FM150700 28006KT 5SM BR OVC003=

USA.gov is the U.S. government's official web portal to all federal, state and local government web resources and services.